Minerva Concert — SVWC — position and weather

sailwx.info

Track history (hours):
 
Tides and Currents Weather Stations Pressure Air Temp Water Temp Dewpoint Dewpoint Depression Visibility Wind Speed Wind Dir Waves Ship Positions

Minerva Concert

Last reported at 2016-Sep-25 00:30 UTC. Time now 2016-Sep-28 00:05 UTC.
Position N 36°47' W 009°39'.

Length 241 m; draft 13.8 m.

Type: Ship. MMSI: 240110000.

Date/timePositionNaut miles runAvg speedWind from/ knotsBaromVisibWave heightAir tempDewpointWater temp
2016-Sep-25 00:30N 36°47' W 009°39'2612.8
2016-Sep-24 22:30N 37°12' W 009°46'1512.9
2016-Sep-24 21:21N 37°27' W 009°51'2413.0
2016-Sep-24 19:32N 37°50' W 009°57'1313.1
2016-Sep-24 18:33N 38°02' W 010°01'1313.3
2016-Sep-24 17:33N 38°15' W 010°05'1313.1
2016-Sep-24 16:32N 38°28' W 010°09'2612.9
2016-Sep-24 14:33N 38°53' W 010°13'2512.6
2016-Sep-24 12:33N 39°19' W 010°13'  
2016-Sep-22 04:30N 49°32' W 004°10'1813.3
2016-Sep-22 03:11N 49°40' W 003°47'3312.7
2016-Sep-22 00:33N 49°58' W 003°03'1110.9
2016-Sep-21 23:32N 50°01' W 002°46'1010.1
2016-Sep-21 22:30N 50°04' W 002°31'3411.3
2016-Sep-21 19:33N 50°14' W 001°40'4615.5
2016-Sep-21 16:33N 50°25' W 000°30'9113.0
2016-Sep-21 09:34N 51°09' E 001°36'1414.4
2016-Sep-21 08:33N 51°20' E 001°51'3511.8
2016-Sep-21 05:33N 51°47' E 002°28'3410.5
2016-Sep-21 02:22N 52°03' E 003°16'35 4.0
2016-Sep-20 17:32N 51°56' E 004°12'0 0.0
2016-Sep-20 14:33N 51°56' E 004°12'0 0.0
2016-Sep-20 13:33N 51°56' E 004°12'0 0.0
2016-Sep-20 10:33N 51°56' E 004°12'0 0.0
2016-Sep-20 08:33N 51°56' E 004°12'0 0.0
2016-Sep-20 07:32N 51°56' E 004°12'0 0.0
2016-Sep-20 06:32N 51°56' E 004°12'0 0.0
2016-Sep-20 02:33N 51°56' E 004°12'0 0.0
2016-Sep-19 23:32N 51°56' E 004°12'0 0.0
2016-Sep-19 19:30N 51°56' E 004°12'0 0.0
2016-Sep-19 18:33N 51°56' E 004°12'0 0.0
2016-Sep-19 16:30N 51°56' E 004°12'0 0.0
2016-Sep-19 14:30N 51°56' E 004°12'0 0.0
2016-Sep-19 13:33N 51°56' E 004°12'0 0.0
2016-Sep-19 12:30N 51°56' E 004°12'0 0.0
2016-Sep-19 11:33N 51°56' E 004°12'0 0.0
2016-Sep-19 09:30N 51°56' E 004°12'0 0.0
2016-Sep-19 07:33N 51°56' E 004°12'0 0.0
2016-Sep-19 06:33N 51°56' E 004°12'0 0.0
2016-Sep-19 03:33N 51°56' E 004°12'0 0.0
2016-Sep-19 02:33N 51°56' E 004°12'0 0.0
2016-Sep-19 00:32N 51°56' E 004°12'0 0.0
2016-Sep-18 19:24N 51°56' E 004°12'0 0.0
2016-Sep-18 15:33N 51°56' E 004°12'0 0.0
2016-Sep-18 14:33N 51°56' E 004°12'0 0.0
2016-Sep-18 10:33N 51°56' E 004°12'0 0.0
2016-Sep-18 09:33N 51°56' E 004°12'0 0.0
2016-Sep-18 02:33N 51°56' E 004°12'0 0.0
2016-Sep-18 01:33N 51°56' E 004°12'0 0.0
2016-Sep-18 00:33N 51°56' E 004°12'0 0.1
2016-Sep-17 22:34N 51°56' E 004°12'7 7.3
2016-Sep-17 21:34N 51°60' E 004°02'9 9.0
2016-Sep-17 20:34N 51°60' E 003°47'11 8.2
2016-Sep-17 19:16N 51°56' E 003°31'6210.8
2016-Sep-17 13:34N 51°21' E 002°09'1312.5
2016-Sep-17 12:34N 51°11' E 001°58'2512.3
2016-Sep-17 10:33N 50°55' E 001°28'5611.2
2016-Sep-17 05:31N 50°22' E 000°16'1212.2
2016-Sep-17 04:34N 50°18' W 000°01'21413.4
2016-Sep-16 12:33N 48°58' W 005°08'  
Track history (hours):
 
Tides and Currents Weather Stations Pressure Air Temp Water Temp Dewpoint Dewpoint Depression Visibility Wind Speed Wind Dir Waves Ship Positions

Minerva Concert

Last reported at 2016-Sep-25 00:30 UTC. Time now 2016-Sep-28 00:05 UTC.
Position N 36°47' W 009°39'.

Length 241 m; draft 13.8 m.

Type: Ship. MMSI: 240110000.

Date/timePositionNaut miles runAvg speedWind from/ knotsBaromVisibWave heightAir tempDewpointWater temp
2016-Sep-25 00:30N 36°47' W 009°39'2612.8
2016-Sep-24 22:30N 37°12' W 009°46'1512.9
2016-Sep-24 21:21N 37°27' W 009°51'2413.0
2016-Sep-24 19:32N 37°50' W 009°57'1313.1
2016-Sep-24 18:33N 38°02' W 010°01'1313.3
2016-Sep-24 17:33N 38°15' W 010°05'1313.1
2016-Sep-24 16:32N 38°28' W 010°09'2612.9
2016-Sep-24 14:33N 38°53' W 010°13'2512.6
2016-Sep-24 12:33N 39°19' W 010°13'  
2016-Sep-22 04:30N 49°32' W 004°10'1813.3
2016-Sep-22 03:11N 49°40' W 003°47'3312.7
2016-Sep-22 00:33N 49°58' W 003°03'1110.9
2016-Sep-21 23:32N 50°01' W 002°46'1010.1
2016-Sep-21 22:30N 50°04' W 002°31'3411.3
2016-Sep-21 19:33N 50°14' W 001°40'4615.5
2016-Sep-21 16:33N 50°25' W 000°30'9113.0
2016-Sep-21 09:34N 51°09' E 001°36'1414.4
2016-Sep-21 08:33N 51°20' E 001°51'3511.8
2016-Sep-21 05:33N 51°47' E 002°28'3410.5
2016-Sep-21 02:22N 52°03' E 003°16'35 4.0
2016-Sep-20 17:32N 51°56' E 004°12'0 0.0
2016-Sep-20 14:33N 51°56' E 004°12'0 0.0
2016-Sep-20 13:33N 51°56' E 004°12'0 0.0
2016-Sep-20 10:33N 51°56' E 004°12'0 0.0
2016-Sep-20 08:33N 51°56' E 004°12'0 0.0
2016-Sep-20 07:32N 51°56' E 004°12'0 0.0
2016-Sep-20 06:32N 51°56' E 004°12'0 0.0
2016-Sep-20 02:33N 51°56' E 004°12'0 0.0
2016-Sep-19 23:32N 51°56' E 004°12'0 0.0
2016-Sep-19 19:30N 51°56' E 004°12'0 0.0
2016-Sep-19 18:33N 51°56' E 004°12'0 0.0
2016-Sep-19 16:30N 51°56' E 004°12'0 0.0
2016-Sep-19 14:30N 51°56' E 004°12'0 0.0
2016-Sep-19 13:33N 51°56' E 004°12'0 0.0
2016-Sep-19 12:30N 51°56' E 004°12'0 0.0
2016-Sep-19 11:33N 51°56' E 004°12'0 0.0
2016-Sep-19 09:30N 51°56' E 004°12'0 0.0
2016-Sep-19 07:33N 51°56' E 004°12'0 0.0
2016-Sep-19 06:33N 51°56' E 004°12'0 0.0
2016-Sep-19 03:33N 51°56' E 004°12'0 0.0
2016-Sep-19 02:33N 51°56' E 004°12'0 0.0
2016-Sep-19 00:32N 51°56' E 004°12'0 0.0
2016-Sep-18 19:24N 51°56' E 004°12'0 0.0
2016-Sep-18 15:33N 51°56' E 004°12'0 0.0
2016-Sep-18 14:33N 51°56' E 004°12'0 0.0
2016-Sep-18 10:33N 51°56' E 004°12'0 0.0
2016-Sep-18 09:33N 51°56' E 004°12'0 0.0
2016-Sep-18 02:33N 51°56' E 004°12'0 0.0
2016-Sep-18 01:33N 51°56' E 004°12'0 0.0
2016-Sep-18 00:33N 51°56' E 004°12'0 0.1
2016-Sep-17 22:34N 51°56' E 004°12'7 7.3
2016-Sep-17 21:34N 51°60' E 004°02'9 9.0
2016-Sep-17 20:34N 51°60' E 003°47'11 8.2
2016-Sep-17 19:16N 51°56' E 003°31'6210.8
2016-Sep-17 13:34N 51°21' E 002°09'1312.5
2016-Sep-17 12:34N 51°11' E 001°58'2512.3
2016-Sep-17 10:33N 50°55' E 001°28'5611.2
2016-Sep-17 05:31N 50°22' E 000°16'1212.2
2016-Sep-17 04:34N 50°18' W 000°01'21413.4
2016-Sep-16 12:33N 48°58' W 005°08'  

Dump ship's entire track history